createdAt,value
2019-05-03T00:00:19.610Z,30.87
2019-05-03T00:02:55.779Z,33.20
2019-05-03T00:05:26.002Z,38.23
2019-05-03T00:07:55.321Z,39.97
2019-05-03T00:10:23.964Z,37.33
2019-05-03T00:12:52.853Z,40.40
2019-05-03T00:15:23.040Z,41.63
2019-05-03T00:17:52.658Z,39.73
2019-05-03T00:20:21.936Z,44.50
2019-05-03T00:22:52.335Z,37.73
2019-05-03T00:25:22.099Z,36.27
2019-05-03T00:27:52.650Z,35.23
2019-05-03T00:30:22.543Z,38.60
2019-05-03T00:32:52.137Z,39.27
2019-05-03T00:35:22.628Z,37.93
2019-05-03T00:37:52.797Z,36.30
2019-05-03T00:40:30.027Z,42.47
2019-05-03T00:42:58.870Z,40.07
2019-05-03T00:45:27.406Z,42.00
2019-05-03T00:47:55.902Z,43.47
2019-05-03T00:50:24.376Z,37.93
2019-05-03T00:52:53.244Z,42.27
2019-05-03T00:55:22.130Z,40.63
2019-05-03T00:57:52.148Z,42.90
2019-05-03T01:00:21.765Z,48.83
2019-05-03T01:02:51.692Z,43.90
2019-05-03T01:05:22.526Z,42.63
2019-05-03T01:07:52.404Z,38.47
2019-05-03T01:10:22.603Z,39.57
2019-05-03T01:12:52.394Z,37.40
2019-05-03T01:15:22.699Z,35.50
2019-05-03T01:17:52.526Z,37.47
2019-05-03T01:20:22.534Z,34.33
2019-05-03T01:22:51.886Z,35.97
2019-05-03T01:25:30.100Z,33.43
2019-05-03T01:27:52.197Z,32.50
2019-05-03T01:30:22.626Z,33.10
2019-05-03T01:32:52.349Z,32.83
2019-05-03T01:35:21.946Z,32.17
2019-05-03T01:37:51.796Z,31.57
2019-05-03T01:40:22.009Z,31.47
2019-05-03T01:42:51.827Z,31.30
2019-05-03T01:45:20.435Z,31.43
2019-05-03T01:47:57.067Z,30.60
2019-05-03T01:50:43.580Z,32.73
2019-05-03T01:53:13.731Z,31.93
2019-05-03T01:55:53.748Z,32.20
2019-05-03T01:58:23.394Z,32.53
2019-05-03T02:00:54.363Z,32.37
2019-05-03T02:03:27.211Z,32.83
2019-05-03T02:05:56.067Z,30.43
2019-05-03T02:08:24.561Z,32.07
2019-05-03T02:10:53.038Z,33.97
2019-05-03T02:13:22.935Z,33.93
2019-05-03T02:15:52.742Z,35.77
2019-05-03T02:18:22.324Z,32.40
2019-05-03T02:20:52.545Z,34.47
2019-05-03T02:23:22.444Z,33.90
2019-05-03T02:25:58.407Z,32.20
2019-05-03T02:28:22.056Z,33.00
2019-05-03T02:30:53.252Z,36.47
2019-05-03T02:33:23.201Z,34.00
2019-05-03T02:35:53.322Z,32.00
2019-05-03T02:38:23.329Z,33.27
2019-05-03T02:40:53.239Z,30.33
2019-05-03T02:43:39.450Z,32.90
2019-05-03T02:46:16.741Z,34.90
2019-05-03T02:48:56.203Z,31.73
2019-05-03T02:51:26.106Z,31.37
2019-05-03T02:53:57.116Z,32.00
2019-05-03T02:56:26.138Z,32.17
2019-05-03T02:58:55.741Z,31.63
2019-05-03T03:01:26.563Z,35.33
2019-05-03T03:03:56.260Z,34.23
2019-05-03T03:06:27.117Z,38.53
2019-05-03T03:08:58.576Z,34.03
2019-05-03T03:11:29.543Z,34.73
2019-05-03T03:14:00.027Z,39.43
2019-05-03T03:16:30.661Z,37.13
2019-05-03T03:19:02.211Z,39.40
2019-05-03T03:21:36.010Z,38.27
2019-05-03T03:24:16.834Z,37.30
2019-05-03T03:26:47.795Z,41.03
2019-05-03T03:29:18.184Z,38.17
2019-05-03T03:31:58.840Z,39.73
2019-05-03T03:34:38.594Z,41.33
2019-05-03T03:37:10.263Z,38.37
2019-05-03T03:39:39.195Z,26.93
2019-05-03T03:42:09.279Z,15.97
2019-05-03T03:44:37.920Z,12.87
2019-05-03T03:47:07.137Z,10.47
2019-05-03T03:49:38.150Z,10.50
2019-05-03T03:52:08.364Z,9.00
2019-05-03T03:54:39.670Z,9.70
2019-05-03T03:57:09.746Z,11.20
2019-05-03T03:59:38.215Z,10.83
2019-05-03T04:02:06.846Z,10.57
2019-05-03T04:04:35.989Z,10.87
2019-05-03T04:07:06.573Z,8.30
2019-05-03T04:09:36.408Z,9.17
2019-05-03T04:12:06.128Z,8.37
2019-05-03T04:14:39.481Z,7.73
2019-05-03T04:17:14.907Z,8.20
2019-05-03T04:19:45.452Z,10.57
2019-05-03T04:22:16.423Z,6.43
2019-05-03T04:24:45.919Z,8.90
2019-05-03T04:27:23.119Z,6.17
2019-05-03T04:29:46.022Z,7.57
2019-05-03T04:32:17.558Z,7.07
2019-05-03T04:34:46.027Z,7.07
2019-05-03T04:37:16.200Z,8.07
2019-05-03T04:39:45.602Z,10.53
2019-05-03T04:42:16.674Z,6.80
2019-05-03T04:44:45.569Z,8.10
2019-05-03T04:47:15.618Z,6.80
2019-05-03T04:49:46.349Z,7.67
2019-05-03T04:52:17.496Z,6.50
2019-05-03T04:54:47.608Z,8.10
2019-05-03T04:57:34.338Z,7.60
2019-05-03T04:59:46.293Z,7.67
2019-05-03T05:02:15.967Z,10.80
2019-05-03T05:04:46.361Z,8.37
2019-05-03T05:07:15.564Z,10.57
2019-05-03T05:09:45.667Z,7.50
2019-05-03T05:12:17.658Z,10.63
2019-05-03T05:14:46.127Z,10.27
2019-05-03T05:17:16.688Z,12.60
2019-05-03T05:19:46.848Z,9.97
2019-05-03T05:22:31.643Z,10.73
2019-05-03T05:25:01.750Z,11.97
2019-05-03T05:27:48.371Z,9.10
2019-05-03T05:30:08.019Z,8.50
2019-05-03T05:32:36.516Z,12.07
2019-05-03T05:35:06.726Z,9.23
2019-05-03T05:37:35.327Z,7.57
2019-05-03T05:40:05.310Z,9.40
2019-05-03T05:42:35.054Z,8.43
2019-05-03T05:45:05.009Z,11.60
2019-05-03T05:47:37.920Z,9.47
2019-05-03T05:50:08.593Z,8.63
2019-05-03T05:52:37.072Z,7.37
2019-05-03T05:55:17.931Z,10.13
2019-05-03T05:58:04.767Z,10.43
2019-05-03T06:00:31.916Z,8.20
2019-05-03T06:03:00.413Z,15.90
2019-05-03T06:05:28.911Z,14.20
2019-05-03T06:08:15.745Z,10.73
2019-05-03T06:10:48.559Z,11.77
2019-05-03T06:13:18.695Z,10.33
2019-05-03T06:15:48.804Z,13.07
2019-05-03T06:18:21.373Z,13.63
2019-05-03T06:21:00.523Z,12.73
2019-05-03T06:23:36.667Z,12.87
2019-05-03T06:26:06.852Z,11.57
2019-05-03T06:28:35.713Z,14.90
2019-05-03T06:31:22.808Z,12.97
2019-05-03T06:33:52.524Z,8.70
2019-05-03T06:36:21.192Z,14.53
2019-05-03T06:38:49.682Z,10.80
2019-05-03T06:41:18.149Z,11.20
2019-05-03T06:43:48.723Z,7.53
2019-05-03T06:46:18.337Z,7.37
2019-05-03T06:48:47.047Z,11.50
2019-05-03T06:51:19.899Z,8.57
2019-05-03T06:53:47.581Z,8.80
2019-05-03T06:56:19.346Z,7.97
2019-05-03T06:58:46.133Z,10.73
2019-05-03T07:01:27.969Z,9.30
2019-05-03T07:04:15.267Z,12.83
2019-05-03T07:06:45.533Z,7.87
2019-05-03T07:09:15.667Z,5.67
2019-05-03T07:11:45.143Z,9.27
2019-05-03T07:14:15.541Z,13.30
2019-05-03T07:16:44.402Z,9.07
2019-05-03T07:19:14.750Z,14.30
2019-05-03T07:21:44.649Z,15.63
2019-05-03T07:24:14.671Z,6.13
2019-05-03T07:26:44.826Z,7.50
2019-05-03T07:29:15.228Z,18.47
2019-05-03T07:31:44.672Z,14.77
2019-05-03T07:34:15.416Z,7.97
2019-05-03T07:36:44.641Z,14.50
2019-05-03T07:39:14.519Z,18.80
2019-05-03T07:41:44.666Z,18.43
2019-05-03T07:44:15.134Z,22.07
2019-05-03T07:46:45.191Z,11.87
2019-05-03T07:49:15.378Z,9.87
2019-05-03T07:51:44.872Z,10.23
2019-05-03T07:54:15.532Z,6.67
2019-05-03T07:56:48.028Z,13.10
2019-05-03T07:59:16.527Z,11.87
2019-05-03T08:01:46.633Z,7.60
2019-05-03T08:04:15.495Z,12.40
2019-05-03T08:06:44.583Z,8.90
2019-05-03T08:09:15.169Z,8.60
2019-05-03T08:11:44.406Z,8.93
2019-05-03T08:14:15.960Z,16.27
2019-05-03T08:16:45.485Z,11.53
2019-05-03T08:19:15.215Z,8.93
2019-05-03T08:21:45.288Z,14.53
2019-05-03T08:24:14.929Z,11.07
2019-05-03T08:26:45.287Z,11.67
2019-05-03T08:29:18.642Z,10.60
2019-05-03T08:31:51.295Z,10.60
2019-05-03T08:34:34.799Z,8.07
2019-05-03T08:37:05.289Z,9.33
2019-05-03T08:39:35.563Z,8.23
2019-05-03T08:42:09.326Z,9.77
2019-05-03T08:44:37.819Z,7.07
2019-05-03T08:47:06.340Z,6.40
2019-05-03T08:49:34.993Z,9.47
2019-05-03T08:52:05.522Z,7.90
2019-05-03T08:54:34.739Z,5.80
2019-05-03T08:57:05.987Z,10.67
2019-05-03T08:59:35.562Z,9.07
2019-05-03T09:02:14.014Z,7.60
2019-05-03T09:04:38.107Z,8.20
2019-05-03T09:07:05.589Z,12.20
2019-05-03T09:09:41.550Z,5.83
2019-05-03T09:12:10.053Z,13.33
2019-05-03T09:14:42.747Z,6.00
2019-05-03T09:17:08.757Z,10.30
2019-05-03T09:19:37.333Z,6.33
2019-05-03T09:22:06.304Z,9.00
2019-05-03T09:24:35.259Z,7.17
2019-05-03T09:27:05.055Z,8.27
2019-05-03T09:29:42.521Z,8.87
2019-05-03T09:32:05.168Z,8.67
2019-05-03T09:34:35.151Z,5.17
2019-05-03T09:37:04.778Z,8.37
2019-05-03T09:39:35.289Z,11.83
2019-05-03T09:42:04.700Z,4.07
2019-05-03T09:44:35.069Z,7.67
2019-05-03T09:47:05.570Z,8.23
2019-05-03T09:49:34.757Z,8.87
2019-05-03T09:52:07.930Z,6.63
2019-05-03T09:54:41.126Z,7.80
2019-05-03T09:57:09.593Z,4.97
2019-05-03T09:59:38.066Z,8.37
2019-05-03T10:02:06.638Z,9.03
2019-05-03T10:04:36.684Z,6.97
2019-05-03T10:07:05.373Z,6.50
2019-05-03T10:09:35.343Z,7.03
2019-05-03T10:12:05.793Z,9.60
2019-05-03T10:14:34.264Z,6.20
2019-05-03T10:17:10.156Z,8.93
2019-05-03T10:19:40.413Z,5.53
2019-05-03T10:22:08.937Z,8.40
2019-05-03T10:24:37.410Z,7.77
2019-05-03T10:27:05.892Z,7.80
2019-05-03T10:29:34.435Z,5.53
2019-05-03T10:32:10.629Z,7.70
2019-05-03T10:34:40.738Z,7.07
2019-05-03T10:37:10.875Z,19.47
2019-05-03T10:39:39.345Z,7.90
2019-05-03T10:42:07.836Z,9.07
2019-05-03T10:44:36.320Z,10.80
2019-05-03T10:47:05.609Z,10.53
2019-05-03T10:49:35.168Z,7.93
2019-05-03T10:52:05.708Z,7.60
2019-05-03T10:54:35.767Z,5.83
2019-05-03T10:57:06.349Z,6.27
2019-05-03T10:59:35.544Z,7.13
2019-05-03T11:02:14.889Z,8.93
2019-05-03T11:04:46.018Z,6.70
2019-05-03T11:07:14.903Z,5.10
2019-05-03T11:09:49.634Z,12.97
2019-05-03T11:12:16.199Z,6.47
2019-05-03T11:14:45.518Z,5.17
2019-05-03T11:17:14.908Z,5.97
2019-05-03T11:19:45.413Z,6.67
2019-05-03T11:22:14.604Z,7.87
2019-05-03T11:24:45.216Z,4.87
2019-05-03T11:27:15.086Z,5.47
2019-05-03T11:29:45.080Z,8.87
2019-05-03T11:32:15.266Z,6.22
2019-05-03T11:34:47.777Z,5.33
2019-05-03T11:37:20.871Z,6.87
2019-05-03T11:39:51.642Z,5.33
2019-05-03T11:42:20.142Z,6.53
2019-05-03T11:44:48.611Z,7.30
2019-05-03T11:47:17.080Z,8.00
2019-05-03T11:49:45.657Z,9.25
2019-05-03T11:52:15.920Z,5.60
2019-05-03T11:54:45.331Z,7.83
2019-05-03T11:57:15.806Z,6.83
2019-05-03T11:59:45.303Z,7.23
2019-05-03T12:02:17.936Z,8.78
2019-05-03T12:04:46.436Z,6.00
2019-05-03T12:07:18.501Z,4.23
2019-05-03T12:09:46.782Z,7.53
2019-05-03T12:12:16.899Z,4.83
2019-05-03T12:14:45.410Z,8.20
2019-05-03T12:17:20.928Z,9.40
2019-05-03T12:19:47.484Z,8.20
2019-05-03T12:22:16.665Z,11.67
2019-05-03T12:24:46.530Z,8.90
2019-05-03T12:27:15.261Z,7.93
2019-05-03T12:29:44.741Z,6.80
2019-05-03T12:32:14.742Z,9.33
2019-05-03T12:34:43.244Z,6.13
2019-05-03T12:37:11.706Z,5.93
2019-05-03T12:39:40.251Z,7.43
2019-05-03T12:42:09.455Z,7.33
2019-05-03T12:44:38.426Z,9.17
2019-05-03T12:47:06.910Z,6.73
2019-05-03T12:49:36.007Z,9.57
2019-05-03T12:52:05.339Z,8.33
2019-05-03T12:54:35.524Z,7.87
2019-05-03T12:57:05.049Z,6.90
2019-05-03T12:59:38.039Z,8.20
2019-05-03T13:02:15.526Z,7.50
2019-05-03T13:04:45.843Z,9.45
2019-05-03T13:07:15.949Z,8.80
2019-05-03T13:09:45.369Z,8.47
2019-05-03T13:12:15.631Z,8.00
2019-05-03T13:14:45.371Z,4.87
2019-05-03T13:17:15.228Z,5.90
2019-05-03T13:19:45.181Z,5.70
2019-05-03T13:22:13.934Z,5.53
2019-05-03T13:24:42.434Z,6.78
2019-05-03T13:27:10.898Z,5.80
2019-05-03T13:29:40.336Z,5.45
2019-05-03T13:32:08.823Z,6.00
2019-05-03T13:34:37.385Z,7.70
2019-05-03T13:37:05.856Z,8.43
2019-05-03T13:39:35.955Z,6.90
2019-05-03T13:42:05.677Z,7.63
2019-05-03T13:44:35.538Z,10.50
2019-05-03T13:47:04.589Z,13.27
2019-05-03T13:49:35.232Z,10.13
2019-05-03T13:52:05.089Z,5.05
2019-05-03T13:54:35.056Z,8.80
2019-05-03T13:57:04.917Z,6.05
2019-05-03T13:59:33.711Z,7.70
2019-05-03T14:02:12.547Z,10.65
2019-05-03T14:04:35.751Z,5.70
2019-05-03T14:07:04.507Z,9.30
2019-05-03T14:09:34.763Z,7.10
2019-05-03T14:12:05.587Z,8.78
2019-05-03T14:14:51.258Z,9.18
2019-05-03T14:17:19.718Z,8.33
2019-05-03T14:19:49.053Z,7.05
2019-05-03T14:22:18.014Z,5.37
2019-05-03T14:24:46.489Z,6.42
2019-05-03T14:27:17.074Z,8.30
2019-05-03T14:29:45.516Z,7.80
2019-05-03T14:32:25.379Z,6.40
2019-05-03T14:34:45.401Z,6.75
2019-05-03T14:37:13.995Z,6.33
2019-05-03T14:39:42.465Z,9.20
2019-05-03T14:42:10.965Z,6.55
2019-05-03T14:44:39.438Z,6.50
2019-05-03T14:47:07.937Z,6.05
2019-05-03T14:49:36.404Z,7.97
2019-05-03T14:52:05.553Z,5.80
2019-05-03T14:54:35.872Z,3.95
2019-05-03T14:57:21.001Z,5.47
2019-05-03T15:00:06.348Z,7.40
2019-05-03T15:02:47.630Z,6.55
2019-05-03T15:05:12.309Z,7.17
2019-05-03T15:07:40.795Z,5.33
2019-05-03T15:10:09.407Z,5.70
2019-05-03T15:12:37.906Z,5.60
2019-05-03T15:15:07.713Z,3.65
2019-05-03T15:17:36.288Z,6.75
2019-05-03T15:20:07.368Z,6.80
2019-05-03T15:22:35.953Z,6.72
2019-05-03T15:25:06.169Z,5.03
2019-05-03T15:27:35.379Z,13.30
2019-05-03T15:30:06.174Z,6.12
2019-05-03T15:32:35.359Z,8.13
2019-05-03T15:35:06.213Z,4.57
2019-05-03T15:37:35.773Z,10.37
2019-05-03T15:40:07.566Z,8.63
2019-05-03T15:42:37.533Z,4.03
2019-05-03T15:45:18.253Z,7.58
2019-05-03T15:47:57.342Z,5.08
2019-05-03T15:50:25.888Z,5.17
2019-05-03T15:52:55.049Z,7.43
2019-05-03T15:55:24.611Z,5.65
2019-05-03T15:57:55.183Z,6.53
2019-05-03T16:00:24.454Z,8.93
2019-05-03T16:02:54.726Z,9.63
2019-05-03T16:05:25.112Z,5.60
2019-05-03T16:07:55.268Z,6.23
2019-05-03T16:10:24.890Z,7.67
2019-05-03T16:12:54.557Z,8.00
2019-05-03T16:15:24.569Z,7.13
2019-05-03T16:17:54.810Z,9.43
2019-05-03T16:20:25.187Z,7.10
2019-05-03T16:22:54.410Z,6.43
2019-05-03T16:25:25.159Z,4.40
2019-05-03T16:27:55.491Z,5.20
2019-05-03T16:30:40.334Z,8.27
2019-05-03T16:33:08.834Z,4.27
2019-05-03T16:35:37.842Z,6.67
2019-05-03T16:38:06.638Z,7.43
2019-05-03T16:40:35.159Z,8.47
2019-05-03T16:43:03.656Z,5.43
2019-05-03T16:45:32.158Z,5.00
2019-05-03T16:48:00.844Z,6.07
2019-05-03T16:50:29.304Z,5.90
2019-05-03T16:52:57.804Z,5.63
2019-05-03T16:55:26.288Z,7.00
2019-05-03T16:57:54.959Z,8.93
2019-05-03T17:00:25.067Z,4.97
2019-05-03T17:02:55.097Z,9.37
2019-05-03T17:05:25.338Z,9.40
2019-05-03T17:07:55.484Z,10.50
2019-05-03T17:10:28.402Z,8.97
2019-05-03T17:12:57.089Z,12.77
2019-05-03T17:15:25.654Z,6.17
2019-05-03T17:17:54.145Z,7.73
2019-05-03T17:20:22.609Z,7.63
2019-05-03T17:22:51.093Z,6.47
2019-05-03T17:25:19.660Z,6.23
2019-05-03T17:27:48.130Z,8.37
2019-05-03T17:30:17.022Z,5.90
2019-05-03T17:32:45.894Z,4.87
2019-05-03T17:35:14.573Z,6.73
2019-05-03T17:37:45.080Z,4.90
2019-05-03T17:40:23.759Z,8.80
2019-05-03T17:42:59.612Z,7.30
2019-05-03T17:45:29.739Z,5.73
2019-05-03T17:47:58.213Z,6.07
2019-05-03T17:50:26.814Z,7.03
2019-05-03T17:53:08.789Z,5.97
2019-05-03T17:55:44.654Z,9.40
2019-05-03T17:58:17.527Z,5.27
2019-05-03T18:00:50.371Z,11.77
2019-05-03T18:03:19.408Z,6.63
2019-05-03T18:05:49.548Z,10.60
2019-05-03T18:08:31.713Z,7.07
2019-05-03T18:11:04.776Z,6.23
2019-05-03T18:13:35.257Z,8.80
2019-05-03T18:16:04.729Z,7.37
2019-05-03T18:18:35.234Z,9.13
2019-05-03T18:21:04.812Z,7.37
2019-05-03T18:23:35.021Z,8.23
2019-05-03T18:26:05.314Z,11.67
2019-05-03T18:28:35.570Z,6.80
2019-05-03T18:31:05.360Z,7.27
2019-05-03T18:33:34.408Z,7.70
2019-05-03T18:36:02.898Z,7.33
2019-05-03T18:38:33.001Z,7.87
2019-05-03T18:41:01.963Z,9.33
2019-05-03T18:43:37.790Z,7.67
2019-05-03T18:46:24.367Z,8.43
2019-05-03T18:48:52.910Z,8.13
2019-05-03T18:51:25.096Z,7.53
2019-05-03T18:53:54.436Z,11.33
2019-05-03T18:56:25.039Z,9.73
2019-05-03T18:58:54.376Z,10.67
2019-05-03T19:01:25.163Z,5.93
2019-05-03T19:03:55.515Z,10.13
2019-05-03T19:06:24.039Z,9.93
2019-05-03T19:08:54.495Z,11.30
2019-05-03T19:11:27.493Z,7.77
2019-05-03T19:14:00.699Z,5.80
2019-05-03T19:16:36.340Z,8.80
2019-05-03T19:19:04.970Z,6.10
2019-05-03T19:21:35.004Z,6.17
2019-05-03T19:24:04.841Z,8.10
2019-05-03T19:26:35.261Z,8.67
2019-05-03T19:29:04.433Z,6.83
2019-05-03T19:31:33.125Z,7.73
2019-05-03T19:34:01.588Z,7.13
2019-05-03T19:36:30.076Z,7.70
2019-05-03T19:38:58.542Z,10.63
2019-05-03T19:41:27.033Z,10.97
2019-05-03T19:43:55.504Z,6.83
2019-05-03T19:46:24.778Z,6.33
2019-05-03T19:48:54.672Z,7.43
2019-05-03T19:51:23.330Z,6.77
2019-05-03T19:53:55.111Z,7.03
2019-05-03T19:56:25.570Z,7.27
2019-05-03T19:58:55.769Z,5.97
2019-05-03T20:01:28.884Z,6.73
2019-05-03T20:04:01.684Z,8.13
2019-05-03T20:06:37.483Z,9.63
2019-05-03T20:09:21.549Z,11.63
2019-05-03T20:11:50.037Z,8.20
2019-05-03T20:14:18.496Z,6.10
2019-05-03T20:16:46.981Z,6.73
2019-05-03T20:19:20.876Z,11.10
2019-05-03T20:21:45.759Z,8.90
2019-05-03T20:24:14.944Z,8.63
2019-05-03T20:26:45.065Z,14.73
2019-05-03T20:29:14.798Z,9.23
2019-05-03T20:31:44.719Z,9.27
2019-05-03T20:34:13.223Z,9.30
2019-05-03T20:36:41.719Z,12.13
2019-05-03T20:39:10.184Z,10.07
2019-05-03T20:41:38.646Z,7.80
2019-05-03T20:44:25.236Z,7.43
2019-05-03T20:46:58.025Z,5.63
2019-05-03T20:49:26.496Z,7.57
2019-05-03T20:51:55.087Z,9.87
2019-05-03T20:54:23.574Z,7.77
2019-05-03T20:56:52.047Z,9.00
2019-05-03T20:59:20.556Z,10.53
2019-05-03T21:01:49.010Z,8.53
2019-05-03T21:04:17.569Z,8.63
2019-05-03T21:06:46.044Z,5.40
2019-05-03T21:09:14.919Z,10.30
2019-05-03T21:11:44.852Z,8.77
2019-05-03T21:14:15.619Z,6.60
2019-05-03T21:16:45.454Z,8.07
2019-05-03T21:19:18.799Z,8.80
2019-05-03T21:21:48.909Z,8.80
2019-05-03T21:24:26.202Z,11.37
2019-05-03T21:26:54.855Z,11.43
2019-05-03T21:29:23.519Z,8.93
2019-05-03T21:31:52.374Z,10.33
2019-05-03T21:34:20.862Z,9.27
2019-05-03T21:36:49.328Z,13.47
2019-05-03T21:39:17.962Z,13.33
2019-05-03T21:41:46.429Z,12.00
2019-05-03T21:44:31.005Z,11.00
2019-05-03T21:47:01.248Z,10.07
2019-05-03T21:49:46.175Z,10.07
2019-05-03T21:52:14.784Z,12.10
2019-05-03T21:54:44.966Z,11.53
2019-05-03T21:57:14.290Z,7.93
2019-05-03T21:59:44.828Z,8.57
2019-05-03T22:02:15.436Z,5.90
2019-05-03T22:04:44.465Z,14.50
2019-05-03T22:07:13.090Z,8.90
2019-05-03T22:09:41.572Z,6.43
2019-05-03T22:12:10.052Z,7.23
2019-05-03T22:14:42.941Z,8.53
2019-05-03T22:17:29.559Z,9.70
2019-05-03T22:19:59.699Z,7.70
2019-05-03T22:22:36.537Z,10.80
2019-05-03T22:25:08.480Z,9.03
2019-05-03T22:27:38.583Z,7.17
2019-05-03T22:30:07.820Z,9.60
2019-05-03T22:32:36.283Z,7.83
2019-05-03T22:35:09.374Z,9.03
2019-05-03T22:37:37.848Z,10.83
2019-05-03T22:40:06.679Z,8.63
2019-05-03T22:42:35.146Z,7.13
2019-05-03T22:45:04.752Z,5.43
2019-05-03T22:47:33.179Z,11.40
2019-05-03T22:50:01.662Z,8.83
2019-05-03T22:52:30.127Z,8.00
2019-05-03T22:54:58.637Z,11.10
2019-05-03T22:57:27.125Z,8.60
2019-05-03T22:59:55.625Z,7.87
2019-05-03T23:02:24.955Z,10.13
2019-05-03T23:04:55.389Z,9.10
2019-05-03T23:07:24.992Z,7.67
2019-05-03T23:09:53.642Z,9.47
2019-05-03T23:12:22.106Z,7.50
2019-05-03T23:14:50.576Z,8.40
2019-05-03T23:17:19.064Z,9.67
2019-05-03T23:19:49.167Z,5.80
2019-05-03T23:22:25.432Z,6.83
2019-05-03T23:24:54.834Z,8.23
2019-05-03T23:27:24.953Z,8.50
2019-05-03T23:29:54.532Z,8.20
2019-05-03T23:32:24.456Z,7.87
2019-05-03T23:34:54.415Z,9.23
2019-05-03T23:37:23.031Z,7.30
2019-05-03T23:39:51.505Z,7.90
2019-05-03T23:42:20.110Z,9.07
2019-05-03T23:44:48.582Z,9.10
2019-05-03T23:47:18.708Z,8.40
2019-05-03T23:49:47.175Z,10.07
2019-05-03T23:52:19.963Z,7.53
2019-05-03T23:54:48.426Z,9.67
2019-05-03T23:57:16.930Z,7.77
2019-05-03T23:59:45.394Z,7.33
